sensor_id;sensor_type;location;lat;lon;timestamp;pressure;altitude;pressure_sealevel;temperature;humidity
23176;BME280;19910;42.652;23.332;2022-07-29T00:01:07;94768.56;;;18.42;80.41
23176;BME280;19910;42.652;23.332;2022-07-29T00:03:34;94768.66;;;18.50;79.92
23176;BME280;19910;42.652;23.332;2022-07-29T00:06:01;94770.22;;;18.51;79.65
23176;BME280;19910;42.652;23.332;2022-07-29T00:08:27;94778.47;;;18.51;79.57
23176;BME280;19910;42.652;23.332;2022-07-29T00:10:54;94787.44;;;18.47;79.70
23176;BME280;19910;42.652;23.332;2022-07-29T00:13:23;94782.78;;;18.52;80.07
23176;BME280;19910;42.652;23.332;2022-07-29T00:15:49;94784.47;;;18.60;79.85
23176;BME280;19910;42.652;23.332;2022-07-29T00:18:16;94786.78;;;18.58;79.37
23176;BME280;19910;42.652;23.332;2022-07-29T00:20:43;94795.44;;;18.60;79.77
23176;BME280;19910;42.652;23.332;2022-07-29T00:23:10;94794.59;;;18.56;81.21
23176;BME280;19910;42.652;23.332;2022-07-29T00:25:37;94795.25;;;18.45;81.66
23176;BME280;19910;42.652;23.332;2022-07-29T00:28:04;94792.38;;;18.35;80.53
23176;BME280;19910;42.652;23.332;2022-07-29T00:30:32;94781.94;;;18.47;81.58
23176;BME280;19910;42.652;23.332;2022-07-29T00:32:59;94785.34;;;18.37;82.46
23176;BME280;19910;42.652;23.332;2022-07-29T00:35:25;94784.84;;;18.28;83.28
23176;BME280;19910;42.652;23.332;2022-07-29T00:38:12;94791.94;;;18.29;82.65
23176;BME280;19910;42.652;23.332;2022-07-29T00:40:39;94795.81;;;18.28;82.96
23176;BME280;19910;42.652;23.332;2022-07-29T00:43:07;94794.25;;;18.27;82.84
23176;BME280;19910;42.652;23.332;2022-07-29T00:45:35;94786.44;;;18.29;83.00
23176;BME280;19910;42.652;23.332;2022-07-29T00:48:02;94791.94;;;18.33;83.01
23176;BME280;19910;42.652;23.332;2022-07-29T00:50:30;94799.97;;;18.15;83.21
23176;BME280;19910;42.652;23.332;2022-07-29T00:52:57;94794.72;;;18.03;83.70
23176;BME280;19910;42.652;23.332;2022-07-29T00:55:24;94800.81;;;17.93;84.42
23176;BME280;19910;42.652;23.332;2022-07-29T00:57:52;94805.47;;;17.89;84.07
23176;BME280;19910;42.652;23.332;2022-07-29T01:00:21;94802.59;;;18.08;83.12
23176;BME280;19910;42.652;23.332;2022-07-29T01:02:50;94797.66;;;18.21;82.43
23176;BME280;19910;42.652;23.332;2022-07-29T01:05:19;94790.34;;;18.28;82.87
23176;BME280;19910;42.652;23.332;2022-07-29T01:07:48;94787.22;;;18.30;83.04
23176;BME280;19910;42.652;23.332;2022-07-29T01:10:16;94786.47;;;18.33;82.61
23176;BME280;19910;42.652;23.332;2022-07-29T01:12:44;94794.25;;;18.27;82.87
23176;BME280;19910;42.652;23.332;2022-07-29T01:15:13;94790.56;;;18.16;83.52
23176;BME280;19910;42.652;23.332;2022-07-29T01:17:43;94788.47;;;18.06;83.90
23176;BME280;19910;42.652;23.332;2022-07-29T01:20:20;94796.91;;;17.94;85.22
23176;BME280;19910;42.652;23.332;2022-07-29T01:26:22;94788.47;;;18.06;85.24
23176;BME280;19910;42.652;23.332;2022-07-29T01:29:02;94781.50;;;18.12;85.32
23176;BME280;19910;42.652;23.332;2022-07-29T01:31:35;94777.69;;;18.20;85.33
23176;BME280;19910;42.652;23.332;2022-07-29T01:34:07;94778.59;;;18.28;85.90
23176;BME280;19910;42.652;23.332;2022-07-29T01:36:36;94769.56;;;18.27;85.32
23176;BME280;19910;42.652;23.332;2022-07-29T01:39:08;94770.44;;;18.05;86.61
23176;BME280;19910;42.652;23.332;2022-07-29T01:41:40;94765.00;;;18.08;86.30
23176;BME280;19910;42.652;23.332;2022-07-29T01:44:17;94770.44;;;18.05;87.22
23176;BME280;19910;42.652;23.332;2022-07-29T01:46:49;94765.34;;;18.03;86.74
23176;BME280;19910;42.652;23.332;2022-07-29T01:49:20;94772.44;;;18.08;86.20
23176;BME280;19910;42.652;23.332;2022-07-29T01:51:50;94775.78;;;18.24;85.59
23176;BME280;19910;42.652;23.332;2022-07-29T01:54:21;94771.38;;;18.16;86.08
23176;BME280;19910;42.652;23.332;2022-07-29T01:56:53;94764.56;;;18.06;86.45
23176;BME280;19910;42.652;23.332;2022-07-29T01:59:23;94763.75;;;18.02;86.67
23176;BME280;19910;42.652;23.332;2022-07-29T02:01:54;94760.97;;;17.99;86.92
23176;BME280;19910;42.652;23.332;2022-07-29T02:04:21;94761.03;;;18.02;86.86
23176;BME280;19910;42.652;23.332;2022-07-29T02:06:51;94760.78;;;17.85;88.38
23176;BME280;19910;42.652;23.332;2022-07-29T02:09:19;94756.88;;;17.86;87.92
23176;BME280;19910;42.652;23.332;2022-07-29T02:11:52;94756.16;;;17.92;87.81
23176;BME280;19910;42.652;23.332;2022-07-29T02:14:23;94747.69;;;18.01;86.95
23176;BME280;19910;42.652;23.332;2022-07-29T02:16:53;94744.53;;;17.99;86.71
23176;BME280;19910;42.652;23.332;2022-07-29T02:19:22;94751.78;;;18.14;85.76
23176;BME280;19910;42.652;23.332;2022-07-29T02:21:51;94740.88;;;18.21;85.34
23176;BME280;19910;42.652;23.332;2022-07-29T02:24:20;94750.25;;;18.20;85.61
23176;BME280;19910;42.652;23.332;2022-07-29T02:26:49;94747.81;;;18.11;86.28
23176;BME280;19910;42.652;23.332;2022-07-29T02:29:19;94740.44;;;18.19;86.37
23176;BME280;19910;42.652;23.332;2022-07-29T02:31:50;94738.13;;;18.21;86.43
23176;BME280;19910;42.652;23.332;2022-07-29T02:34:18;94743.84;;;18.09;87.30
23176;BME280;19910;42.652;23.332;2022-07-29T02:36:46;94734.06;;;18.08;87.36
23176;BME280;19910;42.652;23.332;2022-07-29T02:39:15;94733.38;;;18.15;87.34
23176;BME280;19910;42.652;23.332;2022-07-29T02:41:44;94724.34;;;18.14;87.39
23176;BME280;19910;42.652;23.332;2022-07-29T02:44:13;94716.53;;;18.16;86.94
23176;BME280;19910;42.652;23.332;2022-07-29T02:46:45;94722.09;;;18.23;86.74
23176;BME280;19910;42.652;23.332;2022-07-29T02:49:17;94709.13;;;18.17;86.25
23176;BME280;19910;42.652;23.332;2022-07-29T02:51:48;94715.56;;;18.01;86.82
23176;BME280;19910;42.652;23.332;2022-07-29T02:54:21;94711.63;;;17.99;86.71
23176;BME280;19910;42.652;23.332;2022-07-29T02:56:50;94721.81;;;17.98;86.82
23176;BME280;19910;42.652;23.332;2022-07-29T02:59:25;94718.59;;;17.93;87.23
23176;BME280;19910;42.652;23.332;2022-07-29T03:01:54;94709.84;;;17.84;87.70
23176;BME280;19910;42.652;23.332;2022-07-29T03:04:24;94713.75;;;17.83;87.50
23176;BME280;19910;42.652;23.332;2022-07-29T03:06:53;94709.13;;;17.87;87.08
23176;BME280;19910;42.652;23.332;2022-07-29T03:09:22;94715.47;;;17.94;86.34
23176;BME280;19910;42.652;23.332;2022-07-29T03:11:49;94710.84;;;17.98;86.45
23176;BME280;19910;42.652;23.332;2022-07-29T03:14:17;94724.13;;;17.96;86.06
23176;BME280;19910;42.652;23.332;2022-07-29T03:16:45;94724.84;;;17.93;86.12
23176;BME280;19910;42.652;23.332;2022-07-29T03:19:12;94731.13;;;17.94;86.10
23176;BME280;19910;42.652;23.332;2022-07-29T03:21:40;94727.22;;;17.95;86.16
23176;BME280;19910;42.652;23.332;2022-07-29T03:24:07;94726.00;;;17.89;86.78
23176;BME280;19910;42.652;23.332;2022-07-29T03:26:34;94733.84;;;17.90;87.06
23176;BME280;19910;42.652;23.332;2022-07-29T03:29:01;94738.19;;;17.95;87.52
23176;BME280;19910;42.652;23.332;2022-07-29T03:31:27;94744.59;;;18.06;87.07
23176;BME280;19910;42.652;23.332;2022-07-29T03:33:54;94743.13;;;18.12;86.52
23176;BME280;19910;42.652;23.332;2022-07-29T03:36:22;94743.97;;;18.16;86.70
23176;BME280;19910;42.652;23.332;2022-07-29T03:38:52;94747.88;;;18.15;86.50
23176;BME280;19910;42.652;23.332;2022-07-29T03:41:22;94735.22;;;18.07;86.68
23176;BME280;19910;42.652;23.332;2022-07-29T03:43:49;94743.13;;;18.12;86.02
23176;BME280;19910;42.652;23.332;2022-07-29T03:46:20;94740.88;;;18.21;85.87
23176;BME280;19910;42.652;23.332;2022-07-29T03:48:50;94746.88;;;18.30;85.30
23176;BME280;19910;42.652;23.332;2022-07-29T03:51:17;94740.16;;;18.58;84.38
23176;BME280;19910;42.652;23.332;2022-07-29T03:53:44;94739.22;;;18.80;83.50
23176;BME280;19910;42.652;23.332;2022-07-29T03:56:15;94742.53;;;18.96;82.62
23176;BME280;19910;42.652;23.332;2022-07-29T03:58:44;94742.78;;;18.84;82.50
23176;BME280;19910;42.652;23.332;2022-07-29T04:01:11;94754.09;;;18.45;84.21
23176;BME280;19910;42.652;23.332;2022-07-29T04:03:39;94745.13;;;18.48;84.76
23176;BME280;19910;42.652;23.332;2022-07-29T04:06:06;94753.09;;;19.42;82.26
23176;BME280;19910;42.652;23.332;2022-07-29T04:08:33;94747.22;;;19.95;78.45
23176;BME280;19910;42.652;23.332;2022-07-29T04:11:01;94741.63;;;20.49;76.35
23176;BME280;19910;42.652;23.332;2022-07-29T04:13:30;94747.69;;;21.86;72.63
23176;BME280;19910;42.652;23.332;2022-07-29T04:15:57;94734.91;;;23.22;68.15
23176;BME280;19910;42.652;23.332;2022-07-29T04:18:24;94745.31;;;24.00;64.97
23176;BME280;19910;42.652;23.332;2022-07-29T04:20:51;94725.41;;;24.80;61.79
23176;BME280;19910;42.652;23.332;2022-07-29T04:23:18;94723.06;;;25.60;60.28
23176;BME280;19910;42.652;23.332;2022-07-29T04:25:45;94721.22;;;26.19;57.13
23176;BME280;19910;42.652;23.332;2022-07-29T04:28:12;94716.47;;;27.68;53.11
23176;BME280;19910;42.652;23.332;2022-07-29T04:30:40;94720.00;;;28.46;51.28
23176;BME280;19910;42.652;23.332;2022-07-29T04:33:07;94727.50;;;27.03;53.03
23176;BME280;19910;42.652;23.332;2022-07-29T04:35:35;94725.69;;;28.42;50.97
23176;BME280;19910;42.652;23.332;2022-07-29T04:38:03;94725.63;;;29.00;48.03
23176;BME280;19910;42.652;23.332;2022-07-29T04:40:30;94729.34;;;28.68;48.54
23176;BME280;19910;42.652;23.332;2022-07-29T04:42:59;94721.88;;;29.57;47.20
23176;BME280;19910;42.652;23.332;2022-07-29T04:45:25;94723.63;;;29.89;47.17
23176;BME280;19910;42.652;23.332;2022-07-29T04:47:54;94732.09;;;30.89;45.13
23176;BME280;19910;42.652;23.332;2022-07-29T04:50:21;94735.91;;;30.73;43.11
23176;BME280;19910;42.652;23.332;2022-07-29T04:52:48;94728.53;;;30.67;42.98
23176;BME280;19910;42.652;23.332;2022-07-29T04:55:14;94735.41;;;29.46;46.32
23176;BME280;19910;42.652;23.332;2022-07-29T04:57:41;94739.66;;;29.63;45.06
23176;BME280;19910;42.652;23.332;2022-07-29T05:00:09;94754.16;;;29.58;44.90
23176;BME280;19910;42.652;23.332;2022-07-29T05:02:36;94748.44;;;29.87;44.77
23176;BME280;19910;42.652;23.332;2022-07-29T05:05:05;94745.31;;;30.67;42.98
23176;BME280;19910;42.652;23.332;2022-07-29T05:07:32;94745.88;;;31.05;43.02
23176;BME280;19910;42.652;23.332;2022-07-29T05:09:59;94749.19;;;31.66;40.98
23176;BME280;19910;42.652;23.332;2022-07-29T05:12:26;94743.91;;;32.44;39.80
23176;BME280;19910;42.652;23.332;2022-07-29T05:14:53;94738.84;;;31.94;40.68
23176;BME280;19910;42.652;23.332;2022-07-29T05:17:20;94741.91;;;31.47;40.78
23176;BME280;19910;42.652;23.332;2022-07-29T05:19:47;94750.31;;;31.77;40.53
23176;BME280;19910;42.652;23.332;2022-07-29T05:22:17;94748.28;;;31.69;40.13
23176;BME280;19910;42.652;23.332;2022-07-29T05:24:44;94761.59;;;30.81;42.33
23176;BME280;19910;42.652;23.332;2022-07-29T05:27:11;94752.94;;;30.32;42.89
23176;BME280;19910;42.652;23.332;2022-07-29T05:29:37;94762.63;;;29.93;43.87
23176;BME280;19910;42.652;23.332;2022-07-29T05:32:04;94763.81;;;29.28;45.71
23176;BME280;19910;42.652;23.332;2022-07-29T05:34:31;94756.84;;;29.49;45.19
23176;BME280;19910;42.652;23.332;2022-07-29T05:36:58;94747.41;;;29.94;44.55
23176;BME280;19910;42.652;23.332;2022-07-29T05:39:27;94752.09;;;30.79;42.70
23176;BME280;19910;42.652;23.332;2022-07-29T05:41:53;94753.97;;;30.60;43.24
23176;BME280;19910;42.652;23.332;2022-07-29T05:44:20;94748.38;;;30.60;43.20
23176;BME280;19910;42.652;23.332;2022-07-29T05:46:47;94749.38;;;30.53;42.87
23176;BME280;19910;42.652;23.332;2022-07-29T05:49:14;94750.38;;;30.25;44.08
23176;BME280;19910;42.652;23.332;2022-07-29T05:51:41;94748.94;;;30.77;42.06
23176;BME280;19910;42.652;23.332;2022-07-29T05:54:07;94761.91;;;30.83;42.70
23176;BME280;19910;42.652;23.332;2022-07-29T05:56:37;94762.63;;;32.57;40.00
23176;BME280;19910;42.652;23.332;2022-07-29T05:59:03;94761.38;;;32.39;39.02
23176;BME280;19910;42.652;23.332;2022-07-29T06:01:30;94754.44;;;32.13;40.34
23176;BME280;19910;42.652;23.332;2022-07-29T06:03:57;94752.28;;;32.08;40.13
23176;BME280;19910;42.652;23.332;2022-07-29T06:06:24;94755.09;;;32.17;40.47
23176;BME280;19910;42.652;23.332;2022-07-29T06:08:51;94762.13;;;32.22;39.24
23176;BME280;19910;42.652;23.332;2022-07-29T06:11:18;94762.19;;;32.00;39.55
23176;BME280;19910;42.652;23.332;2022-07-29T06:13:46;94763.28;;;31.53;39.70
23176;BME280;19910;42.652;23.332;2022-07-29T06:16:13;94764.09;;;32.12;39.36
23176;BME280;19910;42.652;23.332;2022-07-29T06:18:39;94760.13;;;33.04;37.60
23176;BME280;19910;42.652;23.332;2022-07-29T06:21:07;94766.34;;;32.54;38.10
23176;BME280;19910;42.652;23.332;2022-07-29T06:23:35;94768.56;;;32.49;38.05
23176;BME280;19910;42.652;23.332;2022-07-29T06:26:02;94762.31;;;32.36;38.06
23176;BME280;19910;42.652;23.332;2022-07-29T06:28:29;94761.03;;;33.19;37.35
23176;BME280;19910;42.652;23.332;2022-07-29T06:30:58;94761.56;;;33.60;36.58
23176;BME280;19910;42.652;23.332;2022-07-29T06:33:25;94759.19;;;33.07;37.66
23176;BME280;19910;42.652;23.332;2022-07-29T06:35:51;94760.13;;;33.04;37.66
23176;BME280;19910;42.652;23.332;2022-07-29T06:38:18;94763.91;;;32.92;37.75
23176;BME280;19910;42.652;23.332;2022-07-29T06:40:45;94756.69;;;33.09;38.73
23176;BME280;19910;42.652;23.332;2022-07-29T06:43:30;94753.44;;;32.65;38.54
23176;BME280;19910;42.652;23.332;2022-07-29T06:46:04;94752.16;;;33.12;38.67
23176;BME280;19910;42.652;23.332;2022-07-29T06:48:34;94760.13;;;33.13;37.78
23176;BME280;19910;42.652;23.332;2022-07-29T06:51:02;94756.53;;;32.95;38.45
23176;BME280;19910;42.652;23.332;2022-07-29T06:53:29;94752.22;;;31.90;39.88
23176;BME280;19910;42.652;23.332;2022-07-29T06:55:56;94758.09;;;31.42;41.02
23176;BME280;19910;42.652;23.332;2022-07-29T06:58:24;94750.66;;;31.89;40.36
23176;BME280;19910;42.652;23.332;2022-07-29T07:00:51;94755.75;;;31.10;41.67
23176;BME280;19910;42.652;23.332;2022-07-29T07:03:20;94763.50;;;30.15;43.71
23176;BME280;19910;42.652;23.332;2022-07-29T07:05:46;94762.97;;;29.57;44.59
23176;BME280;19910;42.652;23.332;2022-07-29T07:08:13;94755.69;;;29.85;43.94
23176;BME280;19910;42.652;23.332;2022-07-29T07:10:42;94751.91;;;30.73;43.54
23176;BME280;19910;42.652;23.332;2022-07-29T07:13:09;94750.84;;;30.58;43.05
23176;BME280;19910;42.652;23.332;2022-07-29T07:15:36;94753.72;;;30.67;43.86
23176;BME280;19910;42.652;23.332;2022-07-29T07:18:03;94754.28;;;30.27;43.69
23176;BME280;19910;42.652;23.332;2022-07-29T07:20:32;94752.69;;;30.04;44.23
23176;BME280;19910;42.652;23.332;2022-07-29T07:22:59;94755.25;;;29.23;45.89
23176;BME280;19910;42.652;23.332;2022-07-29T07:25:26;94738.38;;;30.71;43.22
23176;BME280;19910;42.652;23.332;2022-07-29T07:27:53;94744.22;;;31.39;41.74
23176;BME280;19910;42.652;23.332;2022-07-29T07:30:20;94739.41;;;31.70;41.21
23176;BME280;19910;42.652;23.332;2022-07-29T07:32:47;94737.94;;;31.26;41.35
23176;BME280;19910;42.652;23.332;2022-07-29T07:35:13;94743.28;;;30.89;41.80
23176;BME280;19910;42.652;23.332;2022-07-29T07:37:42;94751.44;;;29.93;42.80
23176;BME280;19910;42.652;23.332;2022-07-29T07:40:10;94744.41;;;30.35;42.77
23176;BME280;19910;42.652;23.332;2022-07-29T07:42:38;94746.81;;;30.59;41.71
23176;BME280;19910;42.652;23.332;2022-07-29T07:45:05;94743.28;;;31.73;39.81
23176;BME280;19910;42.652;23.332;2022-07-29T07:47:34;94740.91;;;31.31;41.00
23176;BME280;19910;42.652;23.332;2022-07-29T07:50:01;94743.41;;;32.09;38.81
23176;BME280;19910;42.652;23.332;2022-07-29T07:52:28;94743.22;;;32.04;38.72
23176;BME280;19910;42.652;23.332;2022-07-29T07:54:56;94729.78;;;31.90;38.36
23176;BME280;19910;42.652;23.332;2022-07-29T07:57:23;94747.09;;;30.39;40.75
23176;BME280;19910;42.652;23.332;2022-07-29T07:59:50;94748.47;;;29.62;42.18
23176;BME280;19910;42.652;23.332;2022-07-29T08:02:17;94747.41;;;29.94;42.29
23176;BME280;19910;42.652;23.332;2022-07-29T08:04:44;94735.94;;;30.83;40.63
23176;BME280;19910;42.652;23.332;2022-07-29T08:07:10;94751.22;;;29.87;42.01
23176;BME280;19910;42.652;23.332;2022-07-29T08:09:39;94752.88;;;28.67;44.40
23176;BME280;19910;42.652;23.332;2022-07-29T08:12:07;94748.97;;;29.06;44.23
23176;BME280;19910;42.652;23.332;2022-07-29T08:14:34;94730.03;;;29.64;42.34
23176;BME280;19910;42.652;23.332;2022-07-29T08:17:01;94740.16;;;29.96;42.78
23176;BME280;19910;42.652;23.332;2022-07-29T08:19:28;94751.69;;;29.35;43.73
23176;BME280;19910;42.652;23.332;2022-07-29T08:21:55;94736.44;;;30.12;42.34
23176;BME280;19910;42.652;23.332;2022-07-29T08:24:22;94726.72;;;30.38;41.35
23176;BME280;19910;42.652;23.332;2022-07-29T08:27:08;94746.97;;;29.07;43.32
23176;BME280;19910;42.652;23.332;2022-07-29T08:29:35;94734.94;;;29.60;42.87
23176;BME280;19910;42.652;23.332;2022-07-29T08:32:02;94732.78;;;30.02;40.93
23176;BME280;19910;42.652;23.332;2022-07-29T08:34:30;94729.22;;;30.02;41.64
23176;BME280;19910;42.652;23.332;2022-07-29T08:36:57;94732.84;;;30.59;40.22
23176;BME280;19910;42.652;23.332;2022-07-29T08:39:24;94741.34;;;30.08;40.12
23176;BME280;19910;42.652;23.332;2022-07-29T08:41:51;94734.94;;;30.33;40.02
23176;BME280;19910;42.652;23.332;2022-07-29T08:44:21;94723.78;;;30.20;40.39
23176;BME280;19910;42.652;23.332;2022-07-29T08:46:49;94717.41;;;30.54;40.37
23176;BME280;19910;42.652;23.332;2022-07-29T08:49:16;94722.03;;;31.14;39.33
23176;BME280;19910;42.652;23.332;2022-07-29T08:51:43;94735.63;;;30.59;40.45
23176;BME280;19910;42.652;23.332;2022-07-29T08:54:11;94726.78;;;29.79;40.86
23176;BME280;19910;42.652;23.332;2022-07-29T08:56:40;94730.22;;;29.32;40.96
23176;BME280;19910;42.652;23.332;2022-07-29T08:59:08;94720.06;;;30.23;39.76
23176;BME280;19910;42.652;23.332;2022-07-29T09:01:38;94722.50;;;30.68;38.66
23176;BME280;19910;42.652;23.332;2022-07-29T09:04:10;94724.75;;;30.26;39.08
23176;BME280;19910;42.652;23.332;2022-07-29T09:06:40;94717.31;;;29.38;40.78
23176;BME280;19910;42.652;23.332;2022-07-29T09:09:08;94731.19;;;28.58;43.28
23176;BME280;19910;42.652;23.332;2022-07-29T09:11:35;94727.53;;;28.61;42.74
23176;BME280;19910;42.652;23.332;2022-07-29T09:14:02;94725.69;;;28.42;43.44
23176;BME280;19910;42.652;23.332;2022-07-29T09:16:46;94725.56;;;28.46;43.64
23176;BME280;19910;42.652;23.332;2022-07-29T09:19:32;94728.34;;;28.46;42.71
23176;BME280;19910;42.652;23.332;2022-07-29T09:22:01;94724.66;;;28.78;42.46
23176;BME280;19910;42.652;23.332;2022-07-29T09:24:40;94719.28;;;29.25;41.26
23176;BME280;19910;42.652;23.332;2022-07-29T09:27:09;94711.66;;;29.89;40.33
23176;BME280;19910;42.652;23.332;2022-07-29T09:29:36;94708.25;;;30.19;38.60
23176;BME280;19910;42.652;23.332;2022-07-29T09:32:09;94708.13;;;30.23;39.45
23176;BME280;19910;42.652;23.332;2022-07-29T09:34:36;94715.03;;;30.31;40.10
23176;BME280;19910;42.652;23.332;2022-07-29T09:37:03;94709.72;;;30.89;39.97
23176;BME280;19910;42.652;23.332;2022-07-29T09:39:32;94700.06;;;31.43;38.67
23176;BME280;19910;42.652;23.332;2022-07-29T09:42:00;94698.63;;;31.07;38.52
23176;BME280;19910;42.652;23.332;2022-07-29T09:44:40;94704.75;;;30.50;38.49
23176;BME280;19910;42.652;23.332;2022-07-29T09:47:09;94705.94;;;30.39;38.77
23176;BME280;19910;42.652;23.332;2022-07-29T09:49:53;94710.16;;;29.62;40.30
23176;BME280;19910;42.652;23.332;2022-07-29T09:52:23;94706.56;;;29.24;41.52
23176;BME280;19910;42.652;23.332;2022-07-29T09:54:50;94700.72;;;28.80;42.81
23176;BME280;19910;42.652;23.332;2022-07-29T09:57:24;94704.66;;;28.54;43.73
23176;BME280;19910;42.652;23.332;2022-07-29T09:59:59;94704.75;;;28.50;42.80
23176;BME280;19910;42.652;23.332;2022-07-29T10:02:32;94707.59;;;28.34;44.02
23176;BME280;19910;42.652;23.332;2022-07-29T10:05:00;94697.22;;;28.35;43.43
23176;BME280;19910;42.652;23.332;2022-07-29T10:07:43;94692.41;;;28.64;44.38
23176;BME280;19910;42.652;23.332;2022-07-29T10:10:10;94692.69;;;28.82;44.31
23176;BME280;19910;42.652;23.332;2022-07-29T10:12:48;94684.56;;;29.00;43.49
23176;BME280;19910;42.652;23.332;2022-07-29T10:15:16;94676.75;;;29.08;43.86
23176;BME280;19910;42.652;23.332;2022-07-29T10:17:44;94674.75;;;28.96;43.65
23176;BME280;19910;42.652;23.332;2022-07-29T10:20:11;94661.88;;;29.75;41.67
23176;BME280;19910;42.652;23.332;2022-07-29T10:22:39;94660.16;;;30.68;40.74
23176;BME280;19910;42.652;23.332;2022-07-29T10:25:07;94658.59;;;30.45;40.81
23176;BME280;19910;42.652;23.332;2022-07-29T10:27:35;94664.81;;;30.49;40.89
23176;BME280;19910;42.652;23.332;2022-07-29T10:30:03;94652.34;;;30.63;38.68
23176;BME280;19910;42.652;23.332;2022-07-29T10:35:38;94651.28;;;30.91;39.45
23176;BME280;19910;42.652;23.332;2022-07-29T10:38:30;94646.63;;;30.88;39.70
23176;BME280;19910;42.652;23.332;2022-07-29T10:41:09;94648.13;;;31.51;40.34
23176;BME280;19910;42.652;23.332;2022-07-29T10:43:56;94639.22;;;32.11;38.49
23176;BME280;19910;42.652;23.332;2022-07-29T10:46:25;94635.81;;;32.25;37.93
23176;BME280;19910;42.652;23.332;2022-07-29T10:49:05;94640.13;;;31.90;37.16
23176;BME280;19910;42.652;23.332;2022-07-29T10:51:59;94636.78;;;31.64;37.03
23176;BME280;19910;42.652;23.332;2022-07-29T10:54:46;94641.59;;;31.54;38.17
23176;BME280;19910;42.652;23.332;2022-07-29T10:57:18;94629.28;;;31.42;39.11
23176;BME280;19910;42.652;23.332;2022-07-29T10:59:46;94621.47;;;32.32;37.24
23176;BME280;19910;42.652;23.332;2022-07-29T11:02:42;94634.84;;;32.37;36.75
23176;BME280;19910;42.652;23.332;2022-07-29T11:05:11;94624.81;;;31.72;37.58
23176;BME280;19910;42.652;23.332;2022-07-29T11:10:46;94621.34;;;31.59;36.97
23176;BME280;19910;42.652;23.332;2022-07-29T11:13:49;94614.25;;;31.76;36.63
23176;BME280;19910;42.652;23.332;2022-07-29T11:16:18;94622.53;;;32.17;35.92
23176;BME280;19910;42.652;23.332;2022-07-29T11:19:21;94606.59;;;32.59;34.63
23176;BME280;19910;42.652;23.332;2022-07-29T11:21:49;94613.97;;;32.29;34.84
23176;BME280;19910;42.652;23.332;2022-07-29T11:24:20;94613.66;;;32.36;34.79
23176;BME280;19910;42.652;23.332;2022-07-29T11:27:10;94608.13;;;32.69;35.20
23176;BME280;19910;42.652;23.332;2022-07-29T11:29:39;94605.38;;;32.51;35.12
23176;BME280;19910;42.652;23.332;2022-07-29T11:32:11;94602.13;;;32.07;35.56
23176;BME280;19910;42.652;23.332;2022-07-29T11:34:39;94597.94;;;32.21;35.81
23176;BME280;19910;42.652;23.332;2022-07-29T11:37:20;94600.84;;;32.63;35.23
23176;BME280;19910;42.652;23.332;2022-07-29T11:40:16;94607.59;;;32.38;34.30
23176;BME280;19910;42.652;23.332;2022-07-29T11:42:48;94601.66;;;32.45;35.18
23176;BME280;19910;42.652;23.332;2022-07-29T11:45:21;94597.44;;;32.13;35.44
23176;BME280;19910;42.652;23.332;2022-07-29T11:47:55;94597.44;;;31.76;35.34
23176;BME280;19910;42.652;23.332;2022-07-29T11:50:32;94600.13;;;31.31;36.40
23176;BME280;19910;42.652;23.332;2022-07-29T11:53:00;94592.94;;;31.12;36.60
23176;BME280;19910;42.652;23.332;2022-07-29T11:55:29;94590.22;;;31.39;36.63
23176;BME280;19910;42.652;23.332;2022-07-29T11:57:59;94588.34;;;31.45;35.82
23176;BME280;19910;42.652;23.332;2022-07-29T12:00:29;94594.03;;;31.82;35.63
23176;BME280;19910;42.652;23.332;2022-07-29T12:02:58;94591.09;;;32.22;36.11
23176;BME280;19910;42.652;23.332;2022-07-29T12:05:33;94577.22;;;32.09;34.55
23176;BME280;19910;42.652;23.332;2022-07-29T12:08:09;94584.38;;;32.19;35.37
23176;BME280;19910;42.652;23.332;2022-07-29T12:10:38;94586.88;;;32.35;35.02
23176;BME280;19910;42.652;23.332;2022-07-29T12:13:05;94582.31;;;32.47;35.07
23176;BME280;19910;42.652;23.332;2022-07-29T12:15:33;94579.25;;;31.90;34.04
23176;BME280;19910;42.652;23.332;2022-07-29T12:18:09;94583.91;;;32.11;34.33
23176;BME280;19910;42.652;23.332;2022-07-29T12:20:36;94574.63;;;32.75;34.42
23176;BME280;19910;42.652;23.332;2022-07-29T12:23:06;94586.38;;;32.97;33.11
23176;BME280;19910;42.652;23.332;2022-07-29T12:25:34;94582.00;;;33.05;33.37
23176;BME280;19910;42.652;23.332;2022-07-29T12:28:05;94576.03;;;33.12;33.08
23176;BME280;19910;42.652;23.332;2022-07-29T12:30:38;94579.50;;;33.40;32.82
23176;BME280;19910;42.652;23.332;2022-07-29T12:33:16;94570.66;;;33.24;33.19
23176;BME280;19910;42.652;23.332;2022-07-29T12:35:46;94570.84;;;33.53;32.69
23176;BME280;19910;42.652;23.332;2022-07-29T12:38:14;94569.66;;;33.45;32.85
23176;BME280;19910;42.652;23.332;2022-07-29T12:40:43;94567.13;;;33.71;32.20
23176;BME280;19910;42.652;23.332;2022-07-29T12:43:13;94572.53;;;33.83;32.68
23176;BME280;19910;42.652;23.332;2022-07-29T12:45:42;94562.69;;;34.17;32.10
23176;BME280;19910;42.652;23.332;2022-07-29T12:48:09;94564.16;;;34.13;32.75
23176;BME280;19910;42.652;23.332;2022-07-29T12:50:53;94560.69;;;33.79;32.13
23176;BME280;19910;42.652;23.332;2022-07-29T12:53:20;94553.44;;;33.40;32.59
23176;BME280;19910;42.652;23.332;2022-07-29T12:55:49;94553.66;;;33.51;33.63
23176;BME280;19910;42.652;23.332;2022-07-29T12:58:37;94554.13;;;33.35;32.33
23176;BME280;19910;42.652;23.332;2022-07-29T13:01:10;94546.56;;;33.08;33.07
23176;BME280;19910;42.652;23.332;2022-07-29T13:03:48;94542.00;;;33.19;32.00
23176;BME280;19910;42.652;23.332;2022-07-29T13:06:34;94546.56;;;33.41;33.12
23176;BME280;19910;42.652;23.332;2022-07-29T13:09:04;94542.00;;;33.67;32.09
23176;BME280;19910;42.652;23.332;2022-07-29T13:11:33;94542.44;;;33.27;32.89
23176;BME280;19910;42.652;23.332;2022-07-29T13:14:02;94536.28;;;33.38;31.99